createdAt,value
2022-11-05T00:00:37.657Z,13.80
2022-11-05T00:03:23.692Z,13.80
2022-11-05T00:06:29.147Z,13.70
2022-11-05T00:09:14.726Z,13.70
2022-11-05T00:12:00.114Z,13.70
2022-11-05T00:14:45.386Z,13.70
2022-11-05T00:17:12.107Z,13.60
2022-11-05T00:19:38.957Z,13.60
2022-11-05T00:22:24.132Z,13.60
2022-11-05T00:25:10.078Z,13.70
2022-11-05T00:27:36.862Z,13.80
2022-11-05T00:30:04.150Z,13.90
2022-11-05T00:32:32.951Z,13.90
2022-11-05T00:35:00.138Z,13.90
2022-11-05T00:37:29.951Z,13.90
2022-11-05T00:39:56.644Z,13.90
2022-11-05T00:42:41.925Z,13.90
2022-11-05T00:45:09.202Z,13.90
2022-11-05T00:47:54.406Z,13.90
2022-11-05T00:50:22.304Z,13.90
2022-11-05T00:52:58.106Z,13.80
2022-11-05T00:55:41.257Z,13.80
2022-11-05T00:58:16.465Z,13.80
2022-11-05T01:00:48.546Z,13.70
2022-11-05T01:03:17.084Z,13.60
2022-11-05T01:05:46.603Z,13.60
2022-11-05T01:08:14.849Z,13.60
2022-11-05T01:10:43.459Z,13.60
2022-11-05T01:13:13.413Z,13.60
2022-11-05T01:15:41.099Z,13.70
2022-11-05T01:18:08.517Z,13.70
2022-11-05T01:20:35.380Z,13.80
2022-11-05T01:23:02.147Z,13.80
2022-11-05T01:25:29.385Z,13.70
2022-11-05T01:27:56.206Z,13.70
2022-11-05T01:30:23.468Z,13.60
2022-11-05T01:32:50.395Z,13.60
2022-11-05T01:35:18.287Z,13.60
2022-11-05T01:37:45.813Z,13.60
2022-11-05T01:40:19.598Z,13.60
2022-11-05T01:42:46.625Z,13.60
2022-11-05T01:45:18.143Z,13.60
2022-11-05T01:47:49.614Z,13.70
2022-11-05T01:50:26.734Z,13.70
2022-11-05T01:53:17.286Z,13.80
2022-11-05T01:55:53.405Z,13.80
2022-11-05T01:58:23.316Z,13.80
2022-11-05T02:00:50.341Z,13.90
2022-11-05T02:03:18.125Z,13.90
2022-11-05T02:05:46.262Z,13.90
2022-11-05T02:08:21.330Z,13.90
2022-11-05T02:10:49.386Z,14.00
2022-11-05T02:13:16.176Z,14.00
2022-11-05T02:15:51.837Z,13.90
2022-11-05T02:19:06.018Z,13.80
2022-11-05T02:22:08.664Z,13.80
2022-11-05T02:24:41.319Z,13.80
2022-11-05T02:27:10.917Z,13.80
2022-11-05T02:29:54.782Z,13.80
2022-11-05T02:32:29.045Z,13.80
2022-11-05T02:35:04.244Z,13.80
2022-11-05T02:37:52.461Z,13.80
2022-11-05T02:40:48.254Z,13.70
2022-11-05T02:43:50.747Z,13.70
2022-11-05T02:46:27.865Z,13.70
2022-11-05T02:49:13.422Z,13.70
2022-11-05T02:51:45.022Z,13.70
2022-11-05T02:54:25.212Z,13.70
2022-11-05T02:56:54.430Z,13.70
2022-11-05T02:59:21.393Z,13.60
2022-11-05T03:01:49.243Z,13.60
2022-11-05T03:04:19.434Z,13.60
2022-11-05T03:07:08.588Z,13.60
2022-11-05T03:10:00.894Z,13.60
2022-11-05T03:13:03.818Z,13.70
2022-11-05T03:15:52.723Z,13.80
2022-11-05T03:18:55.956Z,13.70
2022-11-05T03:21:27.121Z,13.70
2022-11-05T03:24:02.673Z,13.70
2022-11-05T03:26:39.562Z,13.70
2022-11-05T03:29:11.473Z,13.80
2022-11-05T03:31:40.983Z,13.80
2022-11-05T03:34:09.137Z,13.70
2022-11-05T03:36:41.259Z,13.80
2022-11-05T03:39:17.425Z,13.70
2022-11-05T03:41:47.920Z,13.60
2022-11-05T03:44:22.053Z,13.50
2022-11-05T03:46:52.057Z,13.50
2022-11-05T03:49:25.384Z,13.40
2022-11-05T03:52:15.372Z,13.30
2022-11-05T03:54:42.583Z,13.20
2022-11-05T03:57:12.534Z,13.10
2022-11-05T03:59:43.217Z,13.00
2022-11-05T04:02:11.915Z,13.00
2022-11-05T04:04:39.579Z,13.00
2022-11-05T04:07:25.358Z,13.00
2022-11-05T04:10:10.840Z,12.90
2022-11-05T04:12:56.316Z,12.90
2022-11-05T04:15:25.190Z,12.90
2022-11-05T04:17:51.966Z,12.70
2022-11-05T04:20:37.345Z,12.70
2022-11-05T04:23:25.365Z,12.70
2022-11-05T04:25:52.645Z,12.60
2022-11-05T04:28:19.376Z,12.60
2022-11-05T04:30:46.124Z,12.60
2022-11-05T04:33:17.188Z,12.50
2022-11-05T04:35:46.696Z,12.50
2022-11-05T04:38:16.849Z,12.40
2022-11-05T04:40:44.699Z,12.40
2022-11-05T04:43:15.531Z,12.50
2022-11-05T04:45:43.394Z,12.40
2022-11-05T04:48:11.389Z,12.40
2022-11-05T04:50:38.468Z,12.30
2022-11-05T04:53:05.240Z,12.20
2022-11-05T04:55:32.041Z,12.20
2022-11-05T04:57:58.810Z,12.20
2022-11-05T05:00:26.193Z,12.10
2022-11-05T05:02:52.974Z,12.10
2022-11-05T05:05:19.807Z,12.00
2022-11-05T05:07:46.958Z,12.10
2022-11-05T05:10:13.791Z,12.10
2022-11-05T05:12:40.533Z,12.10
2022-11-05T05:15:07.722Z,12.00
2022-11-05T05:17:34.850Z,12.10
2022-11-05T05:20:20.119Z,12.00
2022-11-05T05:22:56.553Z,12.00
2022-11-05T05:25:23.759Z,11.90
2022-11-05T05:27:50.677Z,12.00
2022-11-05T05:30:18.452Z,11.90
2022-11-05T05:32:45.620Z,11.90
2022-11-05T05:35:12.410Z,11.90
2022-11-05T05:37:39.316Z,11.90
2022-11-05T05:40:07.126Z,11.80
2022-11-05T05:42:38.783Z,11.80
2022-11-05T05:45:08.833Z,11.80
2022-11-05T05:47:35.647Z,11.80
2022-11-05T05:50:02.529Z,11.80
2022-11-05T05:52:29.287Z,11.80
2022-11-05T05:54:56.033Z,11.80
2022-11-05T05:57:22.751Z,11.80
2022-11-05T05:59:49.470Z,11.70
2022-11-05T06:02:16.745Z,11.70
2022-11-05T06:04:43.596Z,11.80
2022-11-05T06:07:10.738Z,11.70
2022-11-05T06:09:37.482Z,11.80
2022-11-05T06:12:04.620Z,11.80
2022-11-05T06:14:31.373Z,11.70
2022-11-05T06:16:58.087Z,11.70
2022-11-05T06:19:24.810Z,11.80
2022-11-05T06:21:51.573Z,11.80
2022-11-05T06:24:18.657Z,11.70
2022-11-05T06:26:45.870Z,11.70
2022-11-05T06:29:12.593Z,11.60
2022-11-05T06:31:39.361Z,11.60
2022-11-05T06:34:06.218Z,11.60
2022-11-05T06:36:33.520Z,11.50
2022-11-05T06:39:00.898Z,11.50
2022-11-05T06:41:28.122Z,11.50
2022-11-05T06:43:55.194Z,11.50
2022-11-05T06:46:22.537Z,11.60
2022-11-05T06:48:49.377Z,11.60
2022-11-05T06:51:16.231Z,11.60
2022-11-05T06:53:43.185Z,11.60
2022-11-05T06:56:10.302Z,11.60
2022-11-05T06:58:37.607Z,11.60
2022-11-05T07:01:09.854Z,11.70
2022-11-05T07:03:39.730Z,11.60
2022-11-05T07:06:07.793Z,11.60
2022-11-05T07:08:36.426Z,11.60
2022-11-05T07:11:04.431Z,11.60
2022-11-05T07:13:31.224Z,11.60
2022-11-05T07:15:58.245Z,11.50
2022-11-05T07:18:25.536Z,11.60
2022-11-05T07:20:52.401Z,11.70
2022-11-05T07:23:19.161Z,11.70
2022-11-05T07:25:45.968Z,11.60
2022-11-05T07:28:14.404Z,11.70
2022-11-05T07:30:41.695Z,11.50
2022-11-05T07:33:15.233Z,11.60
2022-11-05T07:35:42.112Z,11.50
2022-11-05T07:38:09.614Z,11.30
2022-11-05T07:40:36.415Z,11.30
2022-11-05T07:43:04.215Z,11.20
2022-11-05T07:45:31.981Z,12.00
2022-11-05T07:48:03.525Z,11.90
2022-11-05T07:50:33.292Z,11.70
2022-11-05T07:53:05.694Z,11.70
2022-11-05T07:55:33.197Z,11.70
2022-11-05T07:58:00.007Z,11.60
2022-11-05T08:00:27.704Z,11.50
2022-11-05T08:03:14.990Z,11.50
2022-11-05T08:05:44.702Z,11.50
2022-11-05T08:08:17.255Z,11.60
2022-11-05T08:10:44.599Z,11.60
2022-11-05T08:13:13.223Z,11.60
2022-11-05T08:15:40.958Z,11.70
2022-11-05T08:18:17.773Z,11.80
2022-11-05T08:20:45.655Z,11.80
2022-11-05T08:23:12.878Z,11.80
2022-11-05T08:25:40.247Z,11.90
2022-11-05T08:28:11.040Z,11.90
2022-11-05T08:30:37.874Z,11.90
2022-11-05T08:33:07.952Z,11.90
2022-11-05T08:35:36.702Z,11.80
2022-11-05T08:38:06.681Z,11.80
2022-11-05T08:40:37.338Z,11.80
2022-11-05T08:43:06.882Z,11.80
2022-11-05T08:45:36.006Z,11.70
2022-11-05T08:48:10.257Z,11.80
2022-11-05T08:50:38.009Z,11.70
2022-11-05T08:53:05.719Z,11.80
2022-11-05T08:55:33.120Z,11.80
2022-11-05T08:58:05.545Z,11.80
2022-11-05T09:00:35.975Z,11.80
2022-11-05T09:03:05.648Z,11.80
2022-11-05T09:05:38.279Z,11.90
2022-11-05T09:08:09.890Z,12.00
2022-11-05T09:10:37.410Z,12.00
2022-11-05T09:13:04.918Z,12.10
2022-11-05T09:15:32.276Z,12.10
2022-11-05T09:17:59.818Z,12.00
2022-11-05T09:20:26.994Z,12.00
2022-11-05T09:22:54.848Z,11.90
2022-11-05T09:25:21.853Z,11.90
2022-11-05T09:27:48.796Z,11.90
2022-11-05T09:30:15.872Z,11.90
2022-11-05T09:32:42.727Z,11.90
2022-11-05T09:35:09.943Z,12.00
2022-11-05T09:37:37.642Z,11.90
2022-11-05T09:40:05.918Z,11.90
2022-11-05T09:42:39.578Z,12.00
2022-11-05T09:45:20.834Z,12.00
2022-11-05T09:47:52.533Z,11.90
2022-11-05T09:50:34.723Z,11.70
2022-11-05T09:53:01.954Z,11.80
2022-11-05T09:55:33.860Z,11.70
2022-11-05T09:58:03.665Z,11.80
2022-11-05T10:00:32.887Z,11.70
2022-11-05T10:03:05.262Z,11.80
2022-11-05T10:05:34.159Z,11.90
2022-11-05T10:08:21.355Z,12.00
2022-11-05T10:10:54.743Z,12.00
2022-11-05T10:13:35.160Z,12.00
2022-11-05T10:16:07.541Z,12.10
2022-11-05T10:18:41.123Z,12.10
2022-11-05T10:21:14.034Z,12.20
2022-11-05T10:23:40.849Z,12.10
2022-11-05T10:26:24.213Z,12.00
2022-11-05T10:28:51.699Z,12.10
2022-11-05T10:31:21.435Z,12.10
2022-11-05T10:33:50.255Z,12.20
2022-11-05T10:36:30.041Z,12.20
2022-11-05T10:39:15.310Z,12.10
2022-11-05T10:42:00.211Z,12.20
2022-11-05T10:44:37.975Z,12.10
2022-11-05T10:47:46.207Z,12.00
2022-11-05T10:50:23.062Z,11.90
2022-11-05T10:52:58.158Z,11.80
2022-11-05T10:55:44.183Z,11.70
2022-11-05T10:58:16.779Z,11.70
2022-11-05T11:00:46.049Z,11.70
2022-11-05T11:03:37.840Z,11.70
2022-11-05T11:06:23.311Z,11.60
2022-11-05T11:08:52.124Z,11.50
2022-11-05T11:11:36.893Z,11.60
2022-11-05T11:14:23.905Z,11.60
2022-11-05T11:16:53.386Z,11.80
2022-11-05T11:19:33.759Z,11.70
2022-11-05T11:22:04.062Z,11.80
2022-11-05T11:24:39.005Z,11.70
2022-11-05T11:27:14.328Z,11.70
2022-11-05T11:29:49.095Z,11.60
2022-11-05T11:32:19.589Z,11.70
2022-11-05T11:34:50.944Z,11.60
2022-11-05T11:37:22.794Z,11.50
2022-11-05T11:40:05.535Z,11.50
2022-11-05T11:42:35.523Z,11.50
2022-11-05T11:45:18.610Z,11.40
2022-11-05T11:47:48.860Z,11.40
2022-11-05T11:50:43.100Z,11.30
2022-11-05T11:53:22.068Z,11.40
2022-11-05T11:55:55.057Z,11.40
2022-11-05T11:58:54.749Z,11.40
2022-11-05T12:01:39.806Z,11.50
2022-11-05T12:04:35.807Z,11.60
2022-11-05T12:07:24.344Z,11.60
2022-11-05T12:10:00.470Z,11.70
2022-11-05T12:12:31.777Z,11.70
2022-11-05T12:15:08.294Z,11.60
2022-11-05T12:17:56.881Z,11.70
2022-11-05T12:21:03.068Z,11.70
2022-11-05T12:23:59.088Z,11.80
2022-11-05T12:26:43.678Z,12.00
2022-11-05T12:29:34.470Z,12.00
2022-11-05T12:32:22.766Z,11.90
2022-11-05T12:35:20.445Z,11.90
2022-11-05T12:37:50.106Z,11.90
2022-11-05T12:40:47.259Z,11.80
2022-11-05T12:43:23.205Z,11.80
2022-11-05T12:46:21.373Z,11.80
2022-11-05T12:49:14.137Z,11.80
2022-11-05T12:52:01.958Z,11.70
2022-11-05T12:55:11.623Z,11.60
2022-11-05T12:57:43.124Z,11.60
2022-11-05T13:00:22.187Z,11.60
2022-11-05T13:03:01.354Z,11.50
2022-11-05T13:06:06.066Z,11.60
2022-11-05T13:08:46.882Z,11.70
2022-11-05T13:11:31.766Z,11.70
2022-11-05T13:14:11.581Z,11.60
2022-11-05T13:16:43.885Z,11.70
2022-11-05T13:19:25.370Z,11.70
2022-11-05T13:22:01.373Z,11.70
2022-11-05T13:24:34.611Z,11.60
2022-11-05T13:27:05.666Z,11.60
2022-11-05T13:29:37.653Z,11.70
2022-11-05T13:32:26.240Z,11.60
2022-11-05T13:34:56.386Z,11.60
2022-11-05T13:37:53.220Z,11.50
2022-11-05T13:40:25.606Z,11.40
2022-11-05T13:43:27.158Z,11.30
2022-11-05T13:46:12.778Z,11.20
2022-11-05T13:48:42.480Z,11.10
2022-11-05T13:51:20.897Z,11.10
2022-11-05T13:53:59.725Z,11.10
2022-11-05T13:56:50.313Z,11.10
2022-11-05T13:59:57.716Z,11.10
2022-11-05T14:02:29.248Z,11.10
2022-11-05T14:05:01.341Z,11.20
2022-11-05T14:07:38.029Z,11.20
2022-11-05T14:10:30.949Z,11.30
2022-11-05T14:13:01.647Z,11.20
2022-11-05T14:15:30.564Z,11.20
2022-11-05T14:17:59.052Z,11.20
2022-11-05T14:20:41.899Z,11.30
2022-11-05T14:23:17.954Z,11.20
2022-11-05T14:25:44.652Z,11.30
2022-11-05T14:28:36.487Z,11.30
2022-11-05T14:31:41.150Z,11.30
2022-11-05T14:34:12.086Z,11.30
2022-11-05T14:36:41.237Z,11.30
2022-11-05T14:39:19.550Z,11.30
2022-11-05T14:42:19.420Z,11.40
2022-11-05T14:45:04.484Z,11.30
2022-11-05T14:47:35.828Z,11.20
2022-11-05T14:50:19.489Z,11.20
2022-11-05T14:52:55.504Z,11.20
2022-11-05T14:55:56.522Z,11.20
2022-11-05T14:58:35.353Z,11.20
2022-11-05T15:01:07.178Z,11.20
2022-11-05T15:03:45.456Z,11.20
2022-11-05T15:06:22.610Z,11.10
2022-11-05T15:08:49.362Z,11.00
2022-11-05T15:11:38.877Z,11.00
2022-11-05T15:14:16.510Z,11.00
2022-11-05T15:16:47.481Z,11.00
2022-11-05T15:19:31.469Z,11.00
2022-11-05T15:22:01.480Z,11.00
2022-11-05T15:24:28.637Z,11.00
2022-11-05T15:27:05.755Z,11.00
2022-11-05T15:29:33.405Z,11.00
2022-11-05T15:32:00.533Z,11.10
2022-11-05T15:34:30.905Z,11.00
2022-11-05T15:37:02.913Z,11.10
2022-11-05T15:39:38.309Z,11.00
2022-11-05T15:42:12.131Z,11.10
2022-11-05T15:44:50.218Z,11.10
2022-11-05T15:47:23.700Z,11.10
2022-11-05T15:49:59.664Z,11.20
2022-11-05T15:52:36.292Z,11.10
2022-11-05T15:55:12.173Z,11.10
2022-11-05T15:57:59.668Z,11.20
2022-11-05T16:00:28.900Z,11.20
2022-11-05T16:03:02.542Z,11.30
2022-11-05T16:05:33.245Z,11.20
2022-11-05T16:08:01.759Z,11.20
2022-11-05T16:10:35.243Z,11.20
2022-11-05T16:13:26.883Z,11.30
2022-11-05T16:15:56.067Z,11.20
2022-11-05T16:18:24.978Z,11.20
2022-11-05T16:21:04.815Z,11.20
2022-11-05T16:23:50.059Z,11.20
2022-11-05T16:27:00.402Z,11.30
2022-11-05T16:29:35.840Z,11.20
2022-11-05T16:32:06.312Z,11.10
2022-11-05T16:34:40.076Z,11.10
2022-11-05T16:37:12.158Z,11.10
2022-11-05T16:39:38.904Z,11.20
2022-11-05T16:42:34.314Z,11.20
2022-11-05T16:45:01.032Z,11.20
2022-11-05T16:47:28.241Z,11.20
2022-11-05T16:49:55.098Z,11.20
2022-11-05T16:52:22.006Z,11.30
2022-11-05T16:54:48.773Z,11.30
2022-11-05T16:57:27.921Z,11.30
2022-11-05T16:59:56.988Z,11.30
2022-11-05T17:02:23.925Z,11.30
2022-11-05T17:04:51.397Z,11.30
2022-11-05T17:07:18.374Z,11.20
2022-11-05T17:09:45.269Z,11.20
2022-11-05T17:12:12.520Z,11.20
2022-11-05T17:14:39.856Z,11.20
2022-11-05T17:17:06.956Z,11.20
2022-11-05T17:19:33.948Z,11.30
2022-11-05T17:22:00.742Z,11.20
2022-11-05T17:24:27.500Z,11.20
2022-11-05T17:26:54.804Z,11.30
2022-11-05T17:29:21.562Z,11.30
2022-11-05T17:31:49.005Z,11.30
2022-11-05T17:34:15.829Z,11.30
2022-11-05T17:36:42.722Z,11.30
2022-11-05T17:39:10.950Z,11.20
2022-11-05T17:41:38.362Z,11.20
2022-11-05T17:44:05.233Z,11.20
2022-11-05T17:46:32.424Z,11.20
2022-11-05T17:48:59.346Z,11.30
2022-11-05T17:51:26.090Z,11.30
2022-11-05T17:53:52.940Z,11.80
2022-11-05T17:56:30.594Z,11.80
2022-11-05T17:59:01.814Z,11.70
2022-11-05T18:01:31.438Z,11.70
2022-11-05T18:04:01.236Z,11.70
2022-11-05T18:06:32.041Z,11.60
2022-11-05T18:08:58.792Z,11.60
2022-11-05T18:11:25.594Z,11.60
2022-11-05T18:13:52.957Z,11.70
2022-11-05T18:16:20.120Z,11.70
2022-11-05T18:18:49.173Z,11.60
2022-11-05T18:21:16.424Z,11.60
2022-11-05T18:23:43.585Z,11.60
2022-11-05T18:26:15.785Z,11.60
2022-11-05T18:28:44.352Z,11.70
2022-11-05T18:31:18.344Z,11.60
2022-11-05T18:33:45.586Z,11.60
2022-11-05T18:36:19.358Z,11.60
2022-11-05T18:38:46.566Z,11.60
2022-11-05T18:41:13.535Z,11.60
2022-11-05T18:43:41.111Z,11.50
2022-11-05T18:46:07.974Z,11.50
2022-11-05T18:48:35.601Z,11.50
2022-11-05T18:51:16.297Z,11.50
2022-11-05T18:53:43.541Z,11.50
2022-11-05T18:56:16.026Z,11.60
2022-11-05T18:58:43.268Z,11.60
2022-11-05T19:01:19.190Z,11.60
2022-11-05T19:03:46.026Z,11.60
2022-11-05T19:06:14.911Z,11.70
2022-11-05T19:08:42.191Z,13.10
2022-11-05T19:11:15.165Z,11.70
2022-11-05T19:13:43.153Z,11.70
2022-11-05T19:16:13.417Z,11.70
2022-11-05T19:18:40.299Z,11.70
2022-11-05T19:21:13.491Z,11.60
2022-11-05T19:23:40.361Z,11.60
2022-11-05T19:26:09.331Z,11.70
2022-11-05T19:28:36.379Z,11.60
2022-11-05T19:31:04.168Z,11.70
2022-11-05T19:33:31.652Z,11.70
2022-11-05T19:35:58.761Z,11.70
2022-11-05T19:38:26.210Z,11.70
2022-11-05T19:40:53.406Z,11.70
2022-11-05T19:43:20.550Z,11.80
2022-11-05T19:45:47.329Z,11.70
2022-11-05T19:48:19.011Z,11.50
2022-11-05T19:50:46.805Z,11.50
2022-11-05T19:53:13.554Z,11.50
2022-11-05T19:55:41.605Z,11.60
2022-11-05T19:58:09.064Z,11.70
2022-11-05T20:00:36.699Z,11.60
2022-11-05T20:03:03.997Z,11.60
2022-11-05T20:05:32.134Z,11.60
2022-11-05T20:07:58.933Z,11.50
2022-11-05T20:10:26.172Z,11.50
2022-11-05T20:12:52.991Z,11.50
2022-11-05T20:15:19.911Z,11.40
2022-11-05T20:17:52.192Z,11.40
2022-11-05T20:20:20.061Z,11.40
2022-11-05T20:22:46.989Z,11.40
2022-11-05T20:25:13.823Z,11.40
2022-11-05T20:27:40.699Z,11.40
2022-11-05T20:30:08.312Z,11.30
2022-11-05T20:32:35.539Z,11.30
2022-11-05T20:35:02.301Z,11.40
2022-11-05T20:37:29.061Z,11.50
2022-11-05T20:39:55.809Z,11.50
2022-11-05T20:42:22.976Z,11.60
2022-11-05T20:44:49.927Z,11.60
2022-11-05T20:47:16.744Z,11.70
2022-11-05T20:49:43.546Z,11.60
2022-11-05T20:52:10.329Z,11.60
2022-11-05T20:54:37.078Z,11.70
2022-11-05T20:57:04.318Z,11.70
2022-11-05T20:59:31.031Z,11.70
2022-11-05T21:01:57.820Z,11.60
2022-11-05T21:04:24.658Z,11.60
2022-11-05T21:06:51.397Z,11.60
2022-11-05T21:09:18.557Z,11.50
2022-11-05T21:12:03.918Z,11.50
2022-11-05T21:14:30.722Z,11.50
2022-11-05T21:16:57.502Z,11.50
2022-11-05T21:19:24.928Z,11.50
2022-11-05T21:21:51.674Z,11.60
2022-11-05T21:24:18.444Z,11.50
2022-11-05T21:26:45.221Z,11.40
2022-11-05T21:29:12.113Z,11.30
2022-11-05T21:31:39.891Z,11.30
2022-11-05T21:34:06.689Z,11.30
2022-11-05T21:36:33.653Z,11.30
2022-11-05T21:39:00.860Z,11.40
2022-11-05T21:41:27.801Z,11.40
2022-11-05T21:43:54.570Z,11.40
2022-11-05T21:46:21.475Z,11.40
2022-11-05T21:48:48.361Z,11.50
2022-11-05T21:51:51.136Z,11.50
2022-11-05T21:54:36.518Z,11.50
2022-11-05T21:57:22.002Z,11.50
2022-11-05T21:59:49.052Z,11.50
2022-11-05T22:02:21.549Z,11.50
2022-11-05T22:04:53.673Z,11.60
2022-11-05T22:07:26.197Z,11.60
2022-11-05T22:09:53.301Z,11.70
2022-11-05T22:12:20.298Z,11.70
2022-11-05T22:14:47.304Z,11.60
2022-11-05T22:17:15.224Z,11.60
2022-11-05T22:19:42.039Z,11.70
2022-11-05T22:22:09.017Z,11.70
2022-11-05T22:24:36.656Z,11.80
2022-11-05T22:27:07.388Z,11.70
2022-11-05T22:29:37.038Z,11.80
2022-11-05T22:32:05.511Z,11.70
2022-11-05T22:34:32.909Z,11.70
2022-11-05T22:36:59.730Z,11.70
2022-11-05T22:39:26.541Z,11.70
2022-11-05T22:41:56.189Z,11.60
2022-11-05T22:44:24.562Z,11.60
2022-11-05T22:46:51.412Z,11.70
2022-11-05T22:49:18.838Z,11.70
2022-11-05T22:51:46.429Z,11.70
2022-11-05T22:54:13.524Z,11.80
2022-11-05T22:56:42.405Z,11.80
2022-11-05T22:59:13.632Z,11.70
2022-11-05T23:01:41.354Z,11.60
2022-11-05T23:04:08.948Z,11.60
2022-11-05T23:06:54.706Z,11.70
2022-11-05T23:09:43.079Z,11.80
2022-11-05T23:12:24.399Z,11.80
2022-11-05T23:14:51.836Z,11.70
2022-11-05T23:17:37.240Z,11.70
2022-11-05T23:20:29.518Z,11.70
2022-11-05T23:23:16.069Z,11.60
2022-11-05T23:25:43.382Z,13.40
2022-11-05T23:28:11.710Z,11.50
2022-11-05T23:31:01.643Z,11.50
2022-11-05T23:33:32.414Z,11.60
2022-11-05T23:36:17.432Z,11.50
2022-11-05T23:38:44.801Z,11.60
2022-11-05T23:41:30.853Z,11.70
2022-11-05T23:44:16.753Z,11.70
2022-11-05T23:47:02.451Z,11.70
2022-11-05T23:49:29.373Z,11.70
2022-11-05T23:51:56.568Z,11.70
2022-11-05T23:54:23.362Z,11.70
2022-11-05T23:56:50.106Z,11.70
2022-11-05T23:59:16.848Z,11.80
